sensor_id;sensor_type;location;lat;lon;timestamp;temperature;humidity
76897;SHT30;65856;52.178;21.176;2023-05-29T00:00:18;11.77;65.05
76897;SHT30;65856;52.178;21.176;2023-05-29T00:02:45;11.74;65.07
76897;SHT30;65856;52.178;21.176;2023-05-29T00:05:12;11.70;65.10
76897;SHT30;65856;52.178;21.176;2023-05-29T00:07:39;11.65;65.11
76897;SHT30;65856;52.178;21.176;2023-05-29T00:10:06;11.60;65.18
76897;SHT30;65856;52.178;21.176;2023-05-29T00:12:35;11.61;65.20
76897;SHT30;65856;52.178;21.176;2023-05-29T00:15:02;11.59;65.20
76897;SHT30;65856;52.178;21.176;2023-05-29T00:17:28;11.56;65.25
76897;SHT30;65856;52.178;21.176;2023-05-29T00:19:57;11.55;65.34
76897;SHT30;65856;52.178;21.176;2023-05-29T00:22:24;11.55;65.48
76897;SHT30;65856;52.178;21.176;2023-05-29T00:24:50;11.54;65.45
76897;SHT30;65856;52.178;21.176;2023-05-29T00:27:17;11.50;65.32
76897;SHT30;65856;52.178;21.176;2023-05-29T00:29:42;11.45;65.37
76897;SHT30;65856;52.178;21.176;2023-05-29T00:32:08;11.41;65.54
76897;SHT30;65856;52.178;21.176;2023-05-29T00:34:33;11.37;65.80
76897;SHT30;65856;52.178;21.176;2023-05-29T00:36:58;11.34;65.73
76897;SHT30;65856;52.178;21.176;2023-05-29T00:39:24;11.32;65.76
76897;SHT30;65856;52.178;21.176;2023-05-29T00:41:50;11.35;65.67
76897;SHT30;65856;52.178;21.176;2023-05-29T00:44:18;11.35;65.63
76897;SHT30;65856;52.178;21.176;2023-05-29T00:46:46;11.32;65.70
76897;SHT30;65856;52.178;21.176;2023-05-29T00:49:16;11.31;65.67
76897;SHT30;65856;52.178;21.176;2023-05-29T00:51:42;11.26;65.71
76897;SHT30;65856;52.178;21.176;2023-05-29T00:54:11;11.21;65.81
76897;SHT30;65856;52.178;21.176;2023-05-29T00:56:40;11.19;65.77
76897;SHT30;65856;52.178;21.176;2023-05-29T00:59:09;11.19;65.82
76897;SHT30;65856;52.178;21.176;2023-05-29T01:01:36;11.19;65.70
76897;SHT30;65856;52.178;21.176;2023-05-29T01:04:03;11.15;65.67
76897;SHT30;65856;52.178;21.176;2023-05-29T01:06:31;11.09;65.80
76897;SHT30;65856;52.178;21.176;2023-05-29T01:08:58;11.06;65.81
76897;SHT30;65856;52.178;21.176;2023-05-29T01:11:39;11.03;65.89
76897;SHT30;65856;52.178;21.176;2023-05-29T01:15:09;11.00;65.99
76897;SHT30;65856;52.178;21.176;2023-05-29T01:20:42;10.87;66.07
76897;SHT30;65856;52.178;21.176;2023-05-29T01:26:43;10.82;66.29
76897;SHT30;65856;52.178;21.176;2023-05-29T01:29:26;10.82;66.16
76897;SHT30;65856;52.178;21.176;2023-05-29T01:31:58;10.80;66.10
76897;SHT30;65856;52.178;21.176;2023-05-29T01:34:24;10.77;66.07
76897;SHT30;65856;52.178;21.176;2023-05-29T01:36:50;10.77;66.00
76897;SHT30;65856;52.178;21.176;2023-05-29T01:39:15;10.76;66.10
76897;SHT30;65856;52.178;21.176;2023-05-29T01:41:43;10.71;66.11
76897;SHT30;65856;52.178;21.176;2023-05-29T01:44:12;10.67;66.10
76897;SHT30;65856;52.178;21.176;2023-05-29T01:46:39;10.63;66.10
76897;SHT30;65856;52.178;21.176;2023-05-29T01:49:08;10.58;66.17
76897;SHT30;65856;52.178;21.176;2023-05-29T01:51:36;10.52;66.27
76897;SHT30;65856;52.178;21.176;2023-05-29T01:54:05;10.48;66.31
76897;SHT30;65856;52.178;21.176;2023-05-29T01:56:30;10.47;66.31
76897;SHT30;65856;52.178;21.176;2023-05-29T01:58:58;10.44;66.30
76897;SHT30;65856;52.178;21.176;2023-05-29T02:01:27;10.43;66.28
76897;SHT30;65856;52.178;21.176;2023-05-29T02:03:52;10.43;66.20
76897;SHT30;65856;52.178;21.176;2023-05-29T02:06:18;10.40;66.12
76897;SHT30;65856;52.178;21.176;2023-05-29T02:08:44;10.36;66.22
76897;SHT30;65856;52.178;21.176;2023-05-29T02:11:10;10.32;66.36
76897;SHT30;65856;52.178;21.176;2023-05-29T02:13:36;10.32;66.40
76897;SHT30;65856;52.178;21.176;2023-05-29T02:16:02;10.28;66.30
76897;SHT30;65856;52.178;21.176;2023-05-29T02:18:28;10.27;66.25
76897;SHT30;65856;52.178;21.176;2023-05-29T02:20:54;10.27;66.31
76897;SHT30;65856;52.178;21.176;2023-05-29T02:23:19;10.30;66.31
76897;SHT30;65856;52.178;21.176;2023-05-29T02:25:45;10.30;66.16
76897;SHT30;65856;52.178;21.176;2023-05-29T02:28:11;10.23;66.14
76897;SHT30;65856;52.178;21.176;2023-05-29T02:30:37;10.19;66.30
76897;SHT30;65856;52.178;21.176;2023-05-29T02:33:02;10.20;66.30
76897;SHT30;65856;52.178;21.176;2023-05-29T02:35:28;10.19;66.22
76897;SHT30;65856;52.178;21.176;2023-05-29T02:37:53;10.17;66.20
76897;SHT30;65856;52.178;21.176;2023-05-29T02:40:19;10.12;66.28
76897;SHT30;65856;52.178;21.176;2023-05-29T02:42:45;10.08;66.41
76897;SHT30;65856;52.178;21.176;2023-05-29T02:45:12;10.06;66.50
76897;SHT30;65856;52.178;21.176;2023-05-29T02:47:38;10.10;66.53
76897;SHT30;65856;52.178;21.176;2023-05-29T02:50:03;10.12;66.50
76897;SHT30;65856;52.178;21.176;2023-05-29T02:52:31;10.11;66.50
76897;SHT30;65856;52.178;21.176;2023-05-29T02:54:57;10.11;66.58
76897;SHT30;65856;52.178;21.176;2023-05-29T02:57:23;10.09;66.63
76897;SHT30;65856;52.178;21.176;2023-05-29T02:59:49;10.09;66.70
76897;SHT30;65856;52.178;21.176;2023-05-29T03:02:16;10.07;66.70
76897;SHT30;65856;52.178;21.176;2023-05-29T03:04:42;10.08;66.80
76897;SHT30;65856;52.178;21.176;2023-05-29T03:07:09;10.09;66.88
76897;SHT30;65856;52.178;21.176;2023-05-29T03:09:35;10.12;66.89
76897;SHT30;65856;52.178;21.176;2023-05-29T03:12:01;10.18;66.90
76897;SHT30;65856;52.178;21.176;2023-05-29T03:14:27;10.22;66.87
76897;SHT30;65856;52.178;21.176;2023-05-29T03:16:53;10.26;66.94
76897;SHT30;65856;52.178;21.176;2023-05-29T03:19:19;10.40;66.90
76897;SHT30;65856;52.178;21.176;2023-05-29T03:21:45;10.58;66.64
76897;SHT30;65856;52.178;21.176;2023-05-29T03:24:11;10.72;66.48
76897;SHT30;65856;52.178;21.176;2023-05-29T03:26:38;10.84;66.40
76897;SHT30;65856;52.178;21.176;2023-05-29T03:29:04;10.85;66.40
76897;SHT30;65856;52.178;21.176;2023-05-29T03:31:30;10.88;66.51
76897;SHT30;65856;52.178;21.176;2023-05-29T03:33:56;10.93;66.47
76897;SHT30;65856;52.178;21.176;2023-05-29T03:36:23;11.14;66.26
76897;SHT30;65856;52.178;21.176;2023-05-29T03:38:49;11.43;65.96
76897;SHT30;65856;52.178;21.176;2023-05-29T03:41:15;11.82;65.49
76897;SHT30;65856;52.178;21.176;2023-05-29T03:43:40;12.28;64.72
76897;SHT30;65856;52.178;21.176;2023-05-29T03:46:06;12.74;64.11
76897;SHT30;65856;52.178;21.176;2023-05-29T03:48:31;13.21;63.41
76897;SHT30;65856;52.178;21.176;2023-05-29T03:50:57;13.56;62.72
76897;SHT30;65856;52.178;21.176;2023-05-29T03:53:22;13.85;62.23
76897;SHT30;65856;52.178;21.176;2023-05-29T03:55:47;13.97;61.92
76897;SHT30;65856;52.178;21.176;2023-05-29T03:58:13;13.95;62.01
76897;SHT30;65856;52.178;21.176;2023-05-29T04:00:38;13.90;62.21
76897;SHT30;65856;52.178;21.176;2023-05-29T04:03:04;13.93;62.39
76897;SHT30;65856;52.178;21.176;2023-05-29T04:05:30;14.00;62.30
76897;SHT30;65856;52.178;21.176;2023-05-29T04:07:56;14.12;62.38
76897;SHT30;65856;52.178;21.176;2023-05-29T04:10:21;14.28;62.28
76897;SHT30;65856;52.178;21.176;2023-05-29T04:12:48;14.40;62.52
76897;SHT30;65856;52.178;21.176;2023-05-29T04:15:13;14.52;62.24
76897;SHT30;65856;52.178;21.176;2023-05-29T04:17:39;14.60;61.63
76897;SHT30;65856;52.178;21.176;2023-05-29T04:20:04;14.66;61.22
76897;SHT30;65856;52.178;21.176;2023-05-29T04:22:36;14.74;61.86
76897;SHT30;65856;52.178;21.176;2023-05-29T04:25:06;14.85;62.18
76897;SHT30;65856;52.178;21.176;2023-05-29T04:27:32;14.96;61.96
76897;SHT30;65856;52.178;21.176;2023-05-29T04:30:02;15.10;61.62
76897;SHT30;65856;52.178;21.176;2023-05-29T04:32:32;15.25;61.05
76897;SHT30;65856;52.178;21.176;2023-05-29T04:35:01;15.42;60.59
76897;SHT30;65856;52.178;21.176;2023-05-29T04:37:30;15.62;60.23
76897;SHT30;65856;52.178;21.176;2023-05-29T04:40:01;15.80;60.74
76897;SHT30;65856;52.178;21.176;2023-05-29T04:42:33;15.98;60.81
76897;SHT30;65856;52.178;21.176;2023-05-29T04:45:03;16.10;60.28
76897;SHT30;65856;52.178;21.176;2023-05-29T04:47:35;16.23;60.00
76897;SHT30;65856;52.178;21.176;2023-05-29T04:50:08;16.38;59.89
76897;SHT30;65856;52.178;21.176;2023-05-29T04:52:37;16.60;59.47
76897;SHT30;65856;52.178;21.176;2023-05-29T04:55:03;16.82;58.89
76897;SHT30;65856;52.178;21.176;2023-05-29T04:57:30;16.99;58.02
76897;SHT30;65856;52.178;21.176;2023-05-29T04:59:56;17.18;56.29
76897;SHT30;65856;52.178;21.176;2023-05-29T05:02:21;17.42;55.26
76897;SHT30;65856;52.178;21.176;2023-05-29T05:04:47;17.67;54.84
76897;SHT30;65856;52.178;21.176;2023-05-29T05:07:12;17.92;55.88
76897;SHT30;65856;52.178;21.176;2023-05-29T05:09:40;18.14;55.38
76897;SHT30;65856;52.178;21.176;2023-05-29T05:12:07;18.32;54.59
76897;SHT30;65856;52.178;21.176;2023-05-29T05:14:32;18.38;54.12
76897;SHT30;65856;52.178;21.176;2023-05-29T05:16:58;18.43;53.72
76897;SHT30;65856;52.178;21.176;2023-05-29T05:19:24;18.60;52.90
76897;SHT30;65856;52.178;21.176;2023-05-29T05:21:50;18.77;51.43
76897;SHT30;65856;52.178;21.176;2023-05-29T05:24:15;18.93;51.14
76897;SHT30;65856;52.178;21.176;2023-05-29T05:26:40;18.99;51.34
76897;SHT30;65856;52.178;21.176;2023-05-29T05:29:06;19.03;51.61
76897;SHT30;65856;52.178;21.176;2023-05-29T05:31:31;19.19;50.65
76897;SHT30;65856;52.178;21.176;2023-05-29T05:33:57;19.43;49.97
76897;SHT30;65856;52.178;21.176;2023-05-29T05:36:22;19.64;49.70
76897;SHT30;65856;52.178;21.176;2023-05-29T05:38:48;19.77;49.51
76897;SHT30;65856;52.178;21.176;2023-05-29T05:41:13;19.81;49.26
76897;SHT30;65856;52.178;21.176;2023-05-29T05:43:39;19.84;49.17
76897;SHT30;65856;52.178;21.176;2023-05-29T05:46:05;19.95;49.31
76897;SHT30;65856;52.178;21.176;2023-05-29T05:48:30;20.21;48.24
76897;SHT30;65856;52.178;21.176;2023-05-29T05:50:56;20.45;48.23
76897;SHT30;65856;52.178;21.176;2023-05-29T05:53:21;20.55;48.13
76897;SHT30;65856;52.178;21.176;2023-05-29T05:55:46;20.69;47.64
76897;SHT30;65856;52.178;21.176;2023-05-29T05:58:12;20.80;47.61
76897;SHT30;65856;52.178;21.176;2023-05-29T06:00:39;20.94;47.24
76897;SHT30;65856;52.178;21.176;2023-05-29T06:03:05;21.07;46.89
76897;SHT30;65856;52.178;21.176;2023-05-29T06:05:31;21.20;47.07
76897;SHT30;65856;52.178;21.176;2023-05-29T06:07:56;21.44;46.49
76897;SHT30;65856;52.178;21.176;2023-05-29T06:10:22;21.64;46.60
76897;SHT30;65856;52.178;21.176;2023-05-29T06:12:47;21.76;46.31
76897;SHT30;65856;52.178;21.176;2023-05-29T06:15:13;21.88;45.98
76897;SHT30;65856;52.178;21.176;2023-05-29T06:17:39;22.02;44.93
76897;SHT30;65856;52.178;21.176;2023-05-29T06:20:05;22.20;43.63
76897;SHT30;65856;52.178;21.176;2023-05-29T06:22:38;22.38;43.19
76897;SHT30;65856;52.178;21.176;2023-05-29T06:25:04;22.62;43.29
76897;SHT30;65856;52.178;21.176;2023-05-29T06:27:30;22.80;42.39
76897;SHT30;65856;52.178;21.176;2023-05-29T06:29:55;22.86;42.76
76897;SHT30;65856;52.178;21.176;2023-05-29T06:32:21;23.09;42.71
76897;SHT30;65856;52.178;21.176;2023-05-29T06:34:47;23.26;41.16
76897;SHT30;65856;52.178;21.176;2023-05-29T06:37:12;23.39;40.31
76897;SHT30;65856;52.178;21.176;2023-05-29T06:39:38;23.47;39.67
76897;SHT30;65856;52.178;21.176;2023-05-29T06:42:06;23.64;38.43
76897;SHT30;65856;52.178;21.176;2023-05-29T06:44:33;23.79;38.81
76897;SHT30;65856;52.178;21.176;2023-05-29T06:46:58;23.83;38.16
76897;SHT30;65856;52.178;21.176;2023-05-29T06:49:24;23.85;37.77
76897;SHT30;65856;52.178;21.176;2023-05-29T06:51:49;23.84;37.83
76897;SHT30;65856;52.178;21.176;2023-05-29T06:54:15;23.98;37.86
76897;SHT30;65856;52.178;21.176;2023-05-29T06:56:41;24.14;37.23
76897;SHT30;65856;52.178;21.176;2023-05-29T06:59:06;24.40;37.18
76897;SHT30;65856;52.178;21.176;2023-05-29T07:01:32;24.65;36.73
76897;SHT30;65856;52.178;21.176;2023-05-29T07:03:58;24.86;36.40
76897;SHT30;65856;52.178;21.176;2023-05-29T07:06:23;25.03;35.26
76897;SHT30;65856;52.178;21.176;2023-05-29T07:08:48;25.10;34.57
76897;SHT30;65856;52.178;21.176;2023-05-29T07:11:14;25.24;34.74
76897;SHT30;65856;52.178;21.176;2023-05-29T07:13:39;25.45;35.15
76897;SHT30;65856;52.178;21.176;2023-05-29T07:16:05;25.71;35.53
76897;SHT30;65856;52.178;21.176;2023-05-29T07:18:31;25.92;35.71
76897;SHT30;65856;52.178;21.176;2023-05-29T07:20:56;26.03;35.05
76897;SHT30;65856;52.178;21.176;2023-05-29T07:23:25;26.03;34.83
76897;SHT30;65856;52.178;21.176;2023-05-29T07:25:51;26.14;35.03
76897;SHT30;65856;52.178;21.176;2023-05-29T07:28:16;26.13;35.01
76897;SHT30;65856;52.178;21.176;2023-05-29T07:30:41;26.19;34.59
76897;SHT30;65856;52.178;21.176;2023-05-29T07:33:07;26.34;34.54
76897;SHT30;65856;52.178;21.176;2023-05-29T07:35:32;26.41;34.62
76897;SHT30;65856;52.178;21.176;2023-05-29T07:37:58;26.48;34.68
76897;SHT30;65856;52.178;21.176;2023-05-29T07:40:25;26.53;34.71
76897;SHT30;65856;52.178;21.176;2023-05-29T07:42:51;26.63;34.29
76897;SHT30;65856;52.178;21.176;2023-05-29T07:45:16;26.75;33.64
76897;SHT30;65856;52.178;21.176;2023-05-29T07:47:42;26.87;33.11
76897;SHT30;65856;52.178;21.176;2023-05-29T07:50:07;26.91;32.85
76897;SHT30;65856;52.178;21.176;2023-05-29T07:52:34;26.98;32.69
76897;SHT30;65856;52.178;21.176;2023-05-29T07:55:00;27.03;32.71
76897;SHT30;65856;52.178;21.176;2023-05-29T07:57:26;27.20;32.99
76897;SHT30;65856;52.178;21.176;2023-05-29T07:59:53;27.42;32.59
76897;SHT30;65856;52.178;21.176;2023-05-29T08:02:18;27.44;32.36
76897;SHT30;65856;52.178;21.176;2023-05-29T08:04:44;27.40;32.17
76897;SHT30;65856;52.178;21.176;2023-05-29T08:07:10;27.40;33.06
76897;SHT30;65856;52.178;21.176;2023-05-29T08:09:35;27.41;32.76
76897;SHT30;65856;52.178;21.176;2023-05-29T08:12:01;27.49;32.26
76897;SHT30;65856;52.178;21.176;2023-05-29T08:14:27;27.60;31.61
76897;SHT30;65856;52.178;21.176;2023-05-29T08:16:53;27.64;31.37
76897;SHT30;65856;52.178;21.176;2023-05-29T08:19:19;27.63;31.88
76897;SHT30;65856;52.178;21.176;2023-05-29T08:21:44;27.64;31.67
76897;SHT30;65856;52.178;21.176;2023-05-29T08:24:09;27.66;31.60
76897;SHT30;65856;52.178;21.176;2023-05-29T08:26:35;27.75;31.46
76897;SHT30;65856;52.178;21.176;2023-05-29T08:29:01;27.74;31.58
76897;SHT30;65856;52.178;21.176;2023-05-29T08:31:26;27.68;32.01
76897;SHT30;65856;52.178;21.176;2023-05-29T08:33:52;27.66;31.88
76897;SHT30;65856;52.178;21.176;2023-05-29T08:36:19;27.75;31.28
76897;SHT30;65856;52.178;21.176;2023-05-29T08:38:46;27.85;31.91
76897;SHT30;65856;52.178;21.176;2023-05-29T08:41:38;27.95;31.62
76897;SHT30;65856;52.178;21.176;2023-05-29T08:44:33;27.98;31.34
76897;SHT30;65856;52.178;21.176;2023-05-29T08:47:03;28.04;31.22
76897;SHT30;65856;52.178;21.176;2023-05-29T08:49:41;28.20;30.92
76897;SHT30;65856;52.178;21.176;2023-05-29T08:52:18;28.31;30.18
76897;SHT30;65856;52.178;21.176;2023-05-29T08:54:48;28.26;29.77
76897;SHT30;65856;52.178;21.176;2023-05-29T08:57:13;28.12;29.56
76897;SHT30;65856;52.178;21.176;2023-05-29T08:59:40;28.04;30.08
76897;SHT30;65856;52.178;21.176;2023-05-29T09:02:10;28.07;30.00
76897;SHT30;65856;52.178;21.176;2023-05-29T09:04:37;28.11;29.86
76897;SHT30;65856;52.178;21.176;2023-05-29T09:07:04;28.09;29.65
76897;SHT30;65856;52.178;21.176;2023-05-29T09:09:33;28.10;29.72
76897;SHT30;65856;52.178;21.176;2023-05-29T09:11:59;28.11;29.58
76897;SHT30;65856;52.178;21.176;2023-05-29T09:14:35;28.08;30.03
76897;SHT30;65856;52.178;21.176;2023-05-29T09:17:02;28.17;30.45
76897;SHT30;65856;52.178;21.176;2023-05-29T09:19:30;28.27;30.67
76897;SHT30;65856;52.178;21.176;2023-05-29T09:22:04;28.41;30.36
76897;SHT30;65856;52.178;21.176;2023-05-29T09:24:38;28.46;29.87
76897;SHT30;65856;52.178;21.176;2023-05-29T09:27:04;28.49;30.12
76897;SHT30;65856;52.178;21.176;2023-05-29T09:29:42;28.63;29.80
76897;SHT30;65856;52.178;21.176;2023-05-29T09:32:14;28.71;29.56
76897;SHT30;65856;52.178;21.176;2023-05-29T09:34:44;28.78;29.95
76897;SHT30;65856;52.178;21.176;2023-05-29T09:37:11;28.87;29.92
76897;SHT30;65856;52.178;21.176;2023-05-29T09:42:06;28.99;30.21
76897;SHT30;65856;52.178;21.176;2023-05-29T09:44:32;28.92;29.99
76897;SHT30;65856;52.178;21.176;2023-05-29T09:46:58;28.96;29.97
76897;SHT30;65856;52.178;21.176;2023-05-29T09:49:25;28.99;30.27
76897;SHT30;65856;52.178;21.176;2023-05-29T09:51:55;29.02;29.94
76897;SHT30;65856;52.178;21.176;2023-05-29T09:54:24;29.11;29.57
76897;SHT30;65856;52.178;21.176;2023-05-29T09:56:56;29.16;29.86
76897;SHT30;65856;52.178;21.176;2023-05-29T09:59:23;29.26;30.26
76897;SHT30;65856;52.178;21.176;2023-05-29T10:02:00;29.28;30.07
76897;SHT30;65856;52.178;21.176;2023-05-29T10:04:37;29.07;29.96
76897;SHT30;65856;52.178;21.176;2023-05-29T10:07:05;28.91;29.75
76897;SHT30;65856;52.178;21.176;2023-05-29T10:09:38;28.89;30.36
76897;SHT30;65856;52.178;21.176;2023-05-29T10:12:11;28.95;30.26
76897;SHT30;65856;52.178;21.176;2023-05-29T10:14:38;28.94;30.41
76897;SHT30;65856;52.178;21.176;2023-05-29T10:17:07;28.90;30.52
76897;SHT30;65856;52.178;21.176;2023-05-29T10:19:36;28.84;30.66
76897;SHT30;65856;52.178;21.176;2023-05-29T10:22:03;28.74;30.40
76897;SHT30;65856;52.178;21.176;2023-05-29T10:24:31;28.71;30.51
76897;SHT30;65856;52.178;21.176;2023-05-29T10:26:58;28.68;30.22
76897;SHT30;65856;52.178;21.176;2023-05-29T10:35:55;28.42;29.50
76897;SHT30;65856;52.178;21.176;2023-05-29T10:38:40;28.44;29.93
76897;SHT30;65856;52.178;21.176;2023-05-29T10:43:53;28.49;30.44
76897;SHT30;65856;52.178;21.176;2023-05-29T10:46:21;28.39;30.91
76897;SHT30;65856;52.178;21.176;2023-05-29T10:48:50;28.24;30.97
76897;SHT30;65856;52.178;21.176;2023-05-29T10:51:26;28.22;30.82
76897;SHT30;65856;52.178;21.176;2023-05-29T10:53:54;28.17;30.53
76897;SHT30;65856;52.178;21.176;2023-05-29T10:56:24;28.11;30.66
76897;SHT30;65856;52.178;21.176;2023-05-29T10:58:55;28.03;31.06
76897;SHT30;65856;52.178;21.176;2023-05-29T11:01:27;28.03;31.16
76897;SHT30;65856;52.178;21.176;2023-05-29T11:06:42;28.01;31.33
76897;SHT30;65856;52.178;21.176;2023-05-29T11:09:27;28.00;31.32
76897;SHT30;65856;52.178;21.176;2023-05-29T11:15:07;27.89;31.50
76897;SHT30;65856;52.178;21.176;2023-05-29T11:20:04;27.74;31.94
76897;SHT30;65856;52.178;21.176;2023-05-29T11:25:26;27.65;31.65
76897;SHT30;65856;52.178;21.176;2023-05-29T11:27:53;27.64;32.02
76897;SHT30;65856;52.178;21.176;2023-05-29T11:30:20;27.64;31.88
76897;SHT30;65856;52.178;21.176;2023-05-29T11:32:46;27.62;31.91
76897;SHT30;65856;52.178;21.176;2023-05-29T11:35:14;27.61;32.21
76897;SHT30;65856;52.178;21.176;2023-05-29T11:37:40;27.53;32.00
76897;SHT30;65856;52.178;21.176;2023-05-29T11:40:09;27.48;31.55
76897;SHT30;65856;52.178;21.176;2023-05-29T11:42:36;27.41;32.06
76897;SHT30;65856;52.178;21.176;2023-05-29T11:45:14;27.30;31.71
76897;SHT30;65856;52.178;21.176;2023-05-29T11:50:27;27.18;31.76
76897;SHT30;65856;52.178;21.176;2023-05-29T11:52:56;27.14;31.10
76897;SHT30;65856;52.178;21.176;2023-05-29T11:55:24;27.10;31.52
76897;SHT30;65856;52.178;21.176;2023-05-29T11:57:52;27.03;31.49
76897;SHT30;65856;52.178;21.176;2023-05-29T12:00:24;27.00;32.00
76897;SHT30;65856;52.178;21.176;2023-05-29T12:02:53;26.98;31.95
76897;SHT30;65856;52.178;21.176;2023-05-29T12:05:19;26.97;32.30
76897;SHT30;65856;52.178;21.176;2023-05-29T12:07:48;26.92;32.48
76897;SHT30;65856;52.178;21.176;2023-05-29T12:10:27;26.93;31.72
76897;SHT30;65856;52.178;21.176;2023-05-29T12:12:54;26.88;32.14
76897;SHT30;65856;52.178;21.176;2023-05-29T12:15:23;26.84;32.41
76897;SHT30;65856;52.178;21.176;2023-05-29T12:17:50;26.83;32.57
76897;SHT30;65856;52.178;21.176;2023-05-29T12:20:18;26.83;32.49
76897;SHT30;65856;52.178;21.176;2023-05-29T12:22:47;26.77;31.50
76897;SHT30;65856;52.178;21.176;2023-05-29T12:25:13;26.65;31.19
76897;SHT30;65856;52.178;21.176;2023-05-29T12:27:43;26.62;31.62
76897;SHT30;65856;52.178;21.176;2023-05-29T12:32:43;26.66;32.37
76897;SHT30;65856;52.178;21.176;2023-05-29T12:35:13;26.65;32.77
76897;SHT30;65856;52.178;21.176;2023-05-29T12:42:55;26.60;32.23
76897;SHT30;65856;52.178;21.176;2023-05-29T12:45:31;26.65;32.01
76897;SHT30;65856;52.178;21.176;2023-05-29T12:47:59;26.65;31.84
76897;SHT30;65856;52.178;21.176;2023-05-29T12:55:42;26.69;32.99
76897;SHT30;65856;52.178;21.176;2023-05-29T12:58:12;26.68;33.21
76897;SHT30;65856;52.178;21.176;2023-05-29T13:00:44;26.64;33.19
76897;SHT30;65856;52.178;21.176;2023-05-29T13:03:10;26.65;33.11
76897;SHT30;65856;52.178;21.176;2023-05-29T13:05:36;26.64;33.03
76897;SHT30;65856;52.178;21.176;2023-05-29T13:08:02;26.61;32.47
76897;SHT30;65856;52.178;21.176;2023-05-29T13:10:30;26.62;32.88
76897;SHT30;65856;52.178;21.176;2023-05-29T13:12:55;26.61;33.49
76897;SHT30;65856;52.178;21.176;2023-05-29T13:15:24;26.60;33.24
76897;SHT30;65856;52.178;21.176;2023-05-29T13:17:51;26.58;33.58
76897;SHT30;65856;52.178;21.176;2023-05-29T13:20:18;26.60;32.88
76897;SHT30;65856;52.178;21.176;2023-05-29T13:22:46;26.59;32.93
76897;SHT30;65856;52.178;21.176;2023-05-29T13:25:14;26.53;32.53
76897;SHT30;65856;52.178;21.176;2023-05-29T13:27:45;26.46;33.39
76897;SHT30;65856;52.178;21.176;2023-05-29T13:30:14;26.35;33.89
76897;SHT30;65856;52.178;21.176;2023-05-29T13:32:41;26.38;34.31
76897;SHT30;65856;52.178;21.176;2023-05-29T13:35:07;26.42;33.71
76897;SHT30;65856;52.178;21.176;2023-05-29T13:37:35;26.45;33.34
76897;SHT30;65856;52.178;21.176;2023-05-29T13:40:03;26.48;33.35
76897;SHT30;65856;52.178;21.176;2023-05-29T13:42:34;26.50;32.80
76897;SHT30;65856;52.178;21.176;2023-05-29T13:45:00;26.49;33.00
76897;SHT30;65856;52.178;21.176;2023-05-29T13:47:25;26.49;32.75
76897;SHT30;65856;52.178;21.176;2023-05-29T13:49:57;26.50;33.01
76897;SHT30;65856;52.178;21.176;2023-05-29T13:52:22;26.50;33.03
76897;SHT30;65856;52.178;21.176;2023-05-29T13:54:48;26.51;33.36
76897;SHT30;65856;52.178;21.176;2023-05-29T13:57:13;26.50;33.38
76897;SHT30;65856;52.178;21.176;2023-05-29T13:59:39;26.49;32.88
76897;SHT30;65856;52.178;21.176;2023-05-29T14:02:05;26.51;33.10
76897;SHT30;65856;52.178;21.176;2023-05-29T14:04:32;26.51;33.63
76897;SHT30;65856;52.178;21.176;2023-05-29T14:06:58;26.50;33.27
76897;SHT30;65856;52.178;21.176;2023-05-29T14:09:24;26.49;32.98
76897;SHT30;65856;52.178;21.176;2023-05-29T14:11:59;26.44;32.86
76897;SHT30;65856;52.178;21.176;2023-05-29T14:14:27;26.36;33.20
76897;SHT30;65856;52.178;21.176;2023-05-29T14:16:53;26.31;33.74
76897;SHT30;65856;52.178;21.176;2023-05-29T14:19:19;26.21;33.87
76897;SHT30;65856;52.178;21.176;2023-05-29T14:21:47;26.14;34.23
76897;SHT30;65856;52.178;21.176;2023-05-29T14:24:13;26.07;34.42
76897;SHT30;65856;52.178;21.176;2023-05-29T14:26:40;26.00;34.59
76897;SHT30;65856;52.178;21.176;2023-05-29T14:29:08;25.94;34.73
76897;SHT30;65856;52.178;21.176;2023-05-29T14:31:33;25.89;34.63
76897;SHT30;65856;52.178;21.176;2023-05-29T14:33:59;25.83;34.48
76897;SHT30;65856;52.178;21.176;2023-05-29T14:36:24;25.80;34.62
76897;SHT30;65856;52.178;21.176;2023-05-29T14:38:50;25.79;34.72
76897;SHT30;65856;52.178;21.176;2023-05-29T14:41:15;25.79;34.84
76897;SHT30;65856;52.178;21.176;2023-05-29T14:43:41;25.84;35.00
76897;SHT30;65856;52.178;21.176;2023-05-29T14:46:08;25.85;34.61
76897;SHT30;65856;52.178;21.176;2023-05-29T14:48:34;25.83;34.22
76897;SHT30;65856;52.178;21.176;2023-05-29T14:51:00;25.81;34.83
76897;SHT30;65856;52.178;21.176;2023-05-29T14:53:26;25.81;34.76
76897;SHT30;65856;52.178;21.176;2023-05-29T14:55:52;25.77;34.54
76897;SHT30;65856;52.178;21.176;2023-05-29T14:58:20;25.73;35.03
76897;SHT30;65856;52.178;21.176;2023-05-29T15:00:46;25.68;34.42
76897;SHT30;65856;52.178;21.176;2023-05-29T15:03:12;25.62;34.84
76897;SHT30;65856;52.178;21.176;2023-05-29T15:05:37;25.62;35.05
76897;SHT30;65856;52.178;21.176;2023-05-29T15:08:03;25.62;35.23
76897;SHT30;65856;52.178;21.176;2023-05-29T15:10:29;25.63;34.38
76897;SHT30;65856;52.178;21.176;2023-05-29T15:12:54;25.64;34.30
76897;SHT30;65856;52.178;21.176;2023-05-29T15:15:31;25.67;34.90
76897;SHT30;65856;52.178;21.176;2023-05-29T15:17:56;25.65;34.91
76897;SHT30;65856;52.178;21.176;2023-05-29T15:20:22;25.62;34.91
76897;SHT30;65856;52.178;21.176;2023-05-29T15:22:50;25.60;35.39
76897;SHT30;65856;52.178;21.176;2023-05-29T15:25:20;25.57;34.62
76897;SHT30;65856;52.178;21.176;2023-05-29T15:27:48;25.54;35.12
76897;SHT30;65856;52.178;21.176;2023-05-29T15:30:14;25.45;35.38
76897;SHT30;65856;52.178;21.176;2023-05-29T15:32:46;25.37;35.43
76897;SHT30;65856;52.178;21.176;2023-05-29T15:35:13;25.32;35.90
76897;SHT30;65856;52.178;21.176;2023-05-29T15:37:41;25.23;35.85
76897;SHT30;65856;52.178;21.176;2023-05-29T15:40:08;25.17;36.05
76897;SHT30;65856;52.178;21.176;2023-05-29T15:42:35;25.12;36.16
76897;SHT30;65856;52.178;21.176;2023-05-29T15:45:02;25.09;36.33
76897;SHT30;65856;52.178;21.176;2023-05-29T15:47:29;25.04;36.80
76897;SHT30;65856;52.178;21.176;2023-05-29T15:49:56;24.99;37.19
76897;SHT30;65856;52.178;21.176;2023-05-29T15:52:23;24.96;37.24
76897;SHT30;65856;52.178;21.176;2023-05-29T15:54:50;24.92;37.32
76897;SHT30;65856;52.178;21.176;2023-05-29T15:57:16;24.90;37.10
76897;SHT30;65856;52.178;21.176;2023-05-29T15:59:41;24.89;37.21
76897;SHT30;65856;52.178;21.176;2023-05-29T16:02:07;24.87;36.71